createdAt,value
2023-05-02T00:00:41.472Z,1.13
2023-05-02T00:03:09.653Z,1.25
2023-05-02T00:05:37.718Z,1.13
2023-05-02T00:08:07.220Z,1.40
2023-05-02T00:10:35.416Z,1.20
2023-05-02T00:13:03.652Z,1.10
2023-05-02T00:15:31.630Z,1.58
2023-05-02T00:18:00.574Z,1.27
2023-05-02T00:20:28.664Z,1.58
2023-05-02T00:22:57.388Z,1.23
2023-05-02T00:25:26.865Z,1.60
2023-05-02T00:27:55.933Z,1.77
2023-05-02T00:30:24.047Z,1.10
2023-05-02T00:32:54.294Z,1.42
2023-05-02T00:35:22.368Z,1.50
2023-05-02T00:37:50.361Z,1.50
2023-05-02T00:40:18.518Z,1.52
2023-05-02T00:42:47.926Z,1.83
2023-05-02T00:45:15.990Z,1.52
2023-05-02T00:47:44.082Z,1.65
2023-05-02T00:50:12.233Z,1.70
2023-05-02T00:52:40.303Z,1.67
2023-05-02T00:55:09.276Z,1.40
2023-05-02T00:57:37.432Z,1.95
2023-05-02T01:00:08.881Z,1.45
2023-05-02T01:02:49.112Z,1.83
2023-05-02T01:05:22.423Z,1.98
2023-05-02T01:08:04.498Z,1.40
2023-05-02T01:10:43.029Z,2.03
2023-05-02T01:13:14.992Z,1.33
2023-05-02T01:15:45.910Z,1.63
2023-05-02T01:18:16.562Z,1.85
2023-05-02T01:20:47.535Z,1.52
2023-05-02T01:23:23.841Z,1.83
2023-05-02T01:26:03.573Z,2.20
2023-05-02T01:28:41.360Z,1.55
2023-05-02T01:31:12.130Z,1.67
2023-05-02T01:33:41.568Z,1.52
2023-05-02T01:36:10.143Z,1.77
2023-05-02T01:38:40.218Z,1.73
2023-05-02T01:41:09.014Z,2.00
2023-05-02T01:43:40.061Z,1.73
2023-05-02T01:46:11.723Z,1.75
2023-05-02T01:48:42.058Z,1.60
2023-05-02T01:51:10.852Z,1.98
2023-05-02T01:53:41.035Z,2.10
2023-05-02T01:56:09.713Z,1.80
2023-05-02T01:58:39.030Z,1.80
2023-05-02T02:01:10.752Z,2.60
2023-05-02T02:03:40.230Z,2.30
2023-05-02T02:06:09.145Z,2.10
2023-05-02T02:08:37.335Z,2.20
2023-05-02T02:11:10.742Z,1.90
2023-05-02T02:13:44.958Z,2.17
2023-05-02T02:16:15.225Z,2.22
2023-05-02T02:18:46.896Z,2.60
2023-05-02T02:21:19.637Z,3.30
2023-05-02T02:23:50.366Z,2.05
2023-05-02T02:26:21.459Z,2.10
2023-05-02T02:28:49.820Z,2.65
2023-05-02T02:31:19.067Z,2.88
2023-05-02T02:33:48.685Z,2.50
2023-05-02T02:36:22.726Z,2.75
2023-05-02T02:38:58.130Z,3.72
2023-05-02T02:41:32.852Z,2.63
2023-05-02T02:44:11.054Z,3.50
2023-05-02T02:46:50.176Z,3.17
2023-05-02T02:49:33.006Z,2.78
2023-05-02T02:52:07.357Z,3.75
2023-05-02T02:54:42.698Z,3.47
2023-05-02T02:57:18.344Z,2.85
2023-05-02T02:59:55.495Z,3.30
2023-05-02T03:02:28.281Z,3.45
2023-05-02T03:04:59.659Z,3.80
2023-05-02T03:07:29.812Z,3.25
2023-05-02T03:09:58.142Z,3.88
2023-05-02T03:12:26.320Z,3.55
2023-05-02T03:14:56.662Z,3.50
2023-05-02T03:17:26.221Z,3.55
2023-05-02T03:19:54.927Z,4.28
2023-05-02T03:22:24.329Z,3.13
2023-05-02T03:24:52.324Z,3.22
2023-05-02T03:27:20.317Z,3.17
2023-05-02T03:29:48.938Z,2.75
2023-05-02T03:32:17.166Z,3.70
2023-05-02T03:34:45.372Z,2.30
2023-05-02T03:37:13.411Z,2.92
2023-05-02T03:39:42.833Z,2.95
2023-05-02T03:42:10.984Z,2.70
2023-05-02T03:44:39.079Z,2.90
2023-05-02T03:47:07.542Z,2.13
2023-05-02T03:49:36.206Z,2.22
2023-05-02T03:52:04.244Z,2.00
2023-05-02T03:54:33.713Z,2.17
2023-05-02T03:57:04.838Z,2.92
2023-05-02T03:59:35.149Z,2.05
2023-05-02T04:02:03.194Z,2.40
2023-05-02T04:04:31.258Z,2.22
2023-05-02T04:06:59.871Z,1.75
2023-05-02T04:09:27.895Z,2.20
2023-05-02T04:11:55.975Z,2.60
2023-05-02T04:14:25.501Z,2.28
2023-05-02T04:16:53.751Z,2.30
2023-05-02T04:19:21.738Z,2.15
2023-05-02T04:21:49.737Z,3.75
2023-05-02T04:24:17.767Z,2.10
2023-05-02T04:26:47.570Z,2.05
2023-05-02T04:29:15.666Z,2.80
2023-05-02T04:31:45.432Z,2.33
2023-05-02T04:34:13.600Z,2.90
2023-05-02T04:36:41.977Z,2.17
2023-05-02T04:39:10.321Z,2.67
2023-05-02T04:41:38.492Z,2.00
2023-05-02T04:44:06.864Z,1.90
2023-05-02T04:46:34.974Z,1.77
2023-05-02T04:49:04.426Z,2.75
2023-05-02T04:51:32.745Z,2.40
2023-05-02T04:54:00.734Z,2.28
2023-05-02T04:56:28.806Z,2.95
2023-05-02T04:58:56.987Z,2.40
2023-05-02T05:01:27.923Z,2.38
2023-05-02T05:03:56.254Z,2.67
2023-05-02T05:06:26.481Z,2.63
2023-05-02T05:08:54.555Z,2.25
2023-05-02T05:11:23.327Z,2.63
2023-05-02T05:13:51.493Z,2.70
2023-05-02T05:16:19.525Z,1.80
2023-05-02T05:18:49.315Z,1.90
2023-05-02T05:21:17.365Z,1.85
2023-05-02T05:23:47.719Z,2.55
2023-05-02T05:26:17.032Z,2.88
2023-05-02T05:28:45.363Z,2.47
2023-05-02T05:31:17.000Z,2.78
2023-05-02T05:33:45.532Z,3.25
2023-05-02T05:36:15.563Z,2.75
2023-05-02T05:38:44.097Z,2.97
2023-05-02T05:41:13.926Z,3.53
2023-05-02T05:43:41.994Z,2.10
2023-05-02T05:46:10.071Z,2.72
2023-05-02T05:48:38.099Z,2.95
2023-05-02T05:51:06.643Z,1.70
2023-05-02T05:53:35.410Z,3.30
2023-05-02T05:56:10.467Z,2.85
2023-05-02T05:58:40.195Z,2.85
2023-05-02T06:01:09.094Z,2.90
2023-05-02T06:03:37.385Z,1.83
2023-05-02T06:06:06.189Z,2.58
2023-05-02T06:08:34.305Z,2.95
2023-05-02T06:11:02.386Z,3.97
2023-05-02T06:13:30.665Z,2.55
2023-05-02T06:16:03.636Z,2.83
2023-05-02T06:18:31.793Z,3.22
2023-05-02T06:21:04.053Z,2.30
2023-05-02T06:23:32.470Z,2.38
2023-05-02T06:26:01.741Z,2.15
2023-05-02T06:28:30.109Z,2.60
2023-05-02T06:30:59.772Z,2.25
2023-05-02T06:33:29.659Z,1.92
2023-05-02T06:35:59.255Z,1.70
2023-05-02T06:38:29.703Z,1.20
2023-05-02T06:40:57.857Z,1.60
2023-05-02T06:43:25.943Z,1.27
2023-05-02T06:45:56.268Z,1.33
2023-05-02T06:48:24.505Z,2.17
2023-05-02T06:50:54.563Z,1.52
2023-05-02T06:53:22.794Z,0.70
2023-05-02T06:55:51.250Z,3.55
2023-05-02T06:58:19.556Z,0.88
2023-05-02T07:00:48.810Z,1.10
2023-05-02T07:03:17.257Z,0.73
2023-05-02T07:05:45.380Z,1.23
2023-05-02T07:08:14.842Z,0.60
2023-05-02T07:10:43.118Z,0.88
2023-05-02T07:13:11.304Z,0.55
2023-05-02T07:15:39.507Z,0.80
2023-05-02T07:18:07.765Z,0.50
2023-05-02T07:20:36.074Z,0.20
2023-05-02T07:23:04.270Z,0.30
2023-05-02T07:25:33.885Z,0.47
2023-05-02T07:28:02.007Z,0.50
2023-05-02T07:30:30.314Z,0.47
2023-05-02T07:32:58.662Z,0.38
2023-05-02T07:35:26.860Z,0.47
2023-05-02T07:37:54.981Z,0.40
2023-05-02T07:40:23.356Z,0.60
2023-05-02T07:42:52.872Z,0.30
2023-05-02T07:45:21.207Z,0.47
2023-05-02T07:47:49.384Z,0.45
2023-05-02T07:50:17.606Z,0.70
2023-05-02T07:52:46.102Z,0.52
2023-05-02T07:55:15.188Z,0.40
2023-05-02T07:57:43.455Z,0.52
2023-05-02T08:00:14.491Z,0.50
2023-05-02T08:02:43.111Z,0.47
2023-05-02T08:05:11.536Z,0.65
2023-05-02T08:07:39.681Z,0.65
2023-05-02T08:10:09.213Z,0.60
2023-05-02T08:12:40.383Z,0.47
2023-05-02T08:15:10.227Z,0.50
2023-05-02T08:17:39.845Z,0.63
2023-05-02T08:20:09.226Z,0.50
2023-05-02T08:22:37.302Z,0.57
2023-05-02T08:25:06.095Z,0.60
2023-05-02T08:27:35.435Z,0.75
2023-05-02T08:30:03.899Z,0.57
2023-05-02T08:32:33.628Z,0.60
2023-05-02T08:35:03.546Z,0.82
2023-05-02T08:37:32.333Z,0.60
2023-05-02T08:40:01.300Z,1.05
2023-05-02T08:42:34.212Z,0.43
2023-05-02T08:45:04.246Z,0.80
2023-05-02T08:47:33.769Z,0.70
2023-05-02T08:50:04.405Z,0.90
2023-05-02T08:52:34.272Z,0.70
2023-05-02T08:55:03.979Z,0.47
2023-05-02T08:57:33.037Z,1.10
2023-05-02T09:00:01.218Z,1.05
2023-05-02T09:02:51.744Z,0.85
2023-05-02T09:05:25.170Z,2.03
2023-05-02T09:07:53.550Z,0.65
2023-05-02T09:10:23.128Z,1.40
2023-05-02T09:12:51.150Z,1.00
2023-05-02T09:15:20.794Z,0.80
2023-05-02T09:17:50.331Z,1.13
2023-05-02T09:20:18.857Z,0.80
2023-05-02T09:22:51.753Z,0.63
2023-05-02T09:25:21.319Z,0.38
2023-05-02T09:27:54.056Z,0.70
2023-05-02T09:30:24.347Z,1.08
2023-05-02T09:32:55.058Z,0.80
2023-05-02T09:35:26.539Z,0.80
2023-05-02T09:37:57.269Z,0.93
2023-05-02T09:40:27.546Z,1.05
2023-05-02T09:42:56.507Z,1.13
2023-05-02T09:45:25.751Z,0.75
2023-05-02T09:47:54.609Z,0.95
2023-05-02T09:50:38.510Z,1.00
2023-05-02T09:53:09.901Z,0.65
2023-05-02T09:55:38.021Z,0.98
2023-05-02T09:58:06.692Z,1.30
2023-05-02T10:00:43.049Z,0.70
2023-05-02T10:03:12.060Z,0.60
2023-05-02T10:05:41.098Z,0.70
2023-05-02T10:08:11.325Z,1.17
2023-05-02T10:10:40.951Z,0.73
2023-05-02T10:13:10.550Z,0.70
2023-05-02T10:15:44.708Z,0.40
2023-05-02T10:18:22.318Z,0.70
2023-05-02T10:21:00.161Z,0.52
2023-05-02T10:23:31.050Z,0.47
2023-05-02T10:26:00.658Z,0.75
2023-05-02T10:28:29.261Z,1.08
2023-05-02T10:30:59.523Z,0.95
2023-05-02T10:33:28.829Z,0.88
2023-05-02T10:35:57.127Z,0.60
2023-05-02T10:38:25.649Z,0.50
2023-05-02T10:40:58.938Z,0.55
2023-05-02T10:43:32.090Z,0.70
2023-05-02T10:46:02.060Z,0.40
2023-05-02T10:48:30.759Z,0.52
2023-05-02T10:51:01.541Z,0.65
2023-05-02T10:53:31.937Z,1.38
2023-05-02T10:56:21.236Z,0.47
2023-05-02T10:58:50.825Z,0.30
2023-05-02T11:01:39.804Z,0.52
2023-05-02T11:04:09.474Z,0.47
2023-05-02T11:06:38.953Z,0.60
2023-05-02T11:09:33.557Z,0.52
2023-05-02T11:12:04.953Z,0.85
2023-05-02T11:14:51.277Z,0.50
2023-05-02T11:17:21.134Z,0.40
2023-05-02T11:20:23.041Z,0.80
2023-05-02T11:22:51.823Z,0.63
2023-05-02T11:25:43.522Z,0.40
2023-05-02T11:28:44.632Z,0.60
2023-05-02T11:31:46.659Z,0.40
2023-05-02T11:34:15.008Z,0.52
2023-05-02T11:36:43.453Z,0.60
2023-05-02T11:39:21.057Z,0.50
2023-05-02T11:41:51.168Z,0.60
2023-05-02T11:44:20.802Z,0.30
2023-05-02T11:46:50.085Z,0.40
2023-05-02T11:49:18.395Z,0.20
2023-05-02T11:51:46.493Z,0.47
2023-05-02T11:54:20.830Z,1.02
2023-05-02T11:56:49.027Z,0.60
2023-05-02T11:59:17.166Z,0.30
2023-05-02T12:01:50.976Z,0.30
2023-05-02T12:04:24.005Z,0.55
2023-05-02T12:06:59.116Z,0.40
2023-05-02T12:09:27.310Z,0.60
2023-05-02T12:11:55.549Z,0.57
2023-05-02T12:14:30.774Z,0.40
2023-05-02T12:17:00.888Z,0.40
2023-05-02T12:19:29.421Z,0.50
2023-05-02T12:21:57.596Z,0.40
2023-05-02T12:24:25.921Z,0.70
2023-05-02T12:27:12.438Z,0.28
2023-05-02T12:29:45.192Z,0.15
2023-05-02T12:32:16.446Z,0.60
2023-05-02T12:34:44.669Z,0.63
2023-05-02T12:37:12.969Z,0.30
2023-05-02T12:39:42.424Z,0.50
2023-05-02T12:42:11.877Z,0.93
2023-05-02T12:44:40.820Z,0.80
2023-05-02T12:47:09.392Z,0.28
2023-05-02T12:49:52.214Z,0.60
2023-05-02T12:52:20.985Z,0.75
2023-05-02T12:54:49.593Z,0.40
2023-05-02T12:57:25.896Z,0.70
2023-05-02T12:59:55.213Z,0.60
2023-05-02T13:02:24.011Z,0.30
2023-05-02T13:04:54.170Z,0.50
2023-05-02T13:07:22.367Z,0.77
2023-05-02T13:09:50.578Z,0.60
2023-05-02T13:12:26.541Z,0.85
2023-05-02T13:14:54.713Z,0.73
2023-05-02T13:17:22.956Z,0.93
2023-05-02T13:20:00.749Z,0.77
2023-05-02T13:22:31.299Z,0.52
2023-05-02T13:24:59.494Z,0.77
2023-05-02T13:27:28.242Z,0.55
2023-05-02T13:29:56.368Z,0.63
2023-05-02T13:32:24.549Z,0.55
2023-05-02T13:34:52.697Z,1.60
2023-05-02T13:37:20.823Z,0.52
2023-05-02T13:39:50.334Z,0.55
2023-05-02T13:42:18.472Z,1.42
2023-05-02T13:44:46.709Z,1.00
2023-05-02T13:47:14.800Z,0.30
2023-05-02T13:49:43.010Z,0.52
2023-05-02T13:52:11.334Z,1.23
2023-05-02T13:54:39.510Z,0.55
2023-05-02T13:57:09.210Z,0.60
2023-05-02T13:59:37.273Z,0.93
2023-05-02T14:02:06.027Z,0.70
2023-05-02T14:04:34.410Z,1.40
2023-05-02T14:07:02.588Z,0.57
2023-05-02T14:09:43.372Z,0.73
2023-05-02T14:12:12.906Z,0.80
2023-05-02T14:14:41.262Z,0.75
2023-05-02T14:17:09.756Z,0.65
2023-05-02T14:19:37.874Z,0.90
2023-05-02T14:22:06.020Z,0.57
2023-05-02T14:24:34.406Z,1.10
2023-05-02T14:27:02.606Z,0.77
2023-05-02T14:29:32.441Z,0.70
2023-05-02T14:32:00.715Z,0.52
2023-05-02T14:34:28.964Z,0.65
2023-05-02T14:36:57.338Z,0.55
2023-05-02T14:39:27.614Z,0.38
2023-05-02T14:41:56.036Z,0.60
2023-05-02T14:44:24.168Z,0.73
2023-05-02T14:46:57.467Z,0.52
2023-05-02T14:49:25.688Z,0.70
2023-05-02T14:51:55.051Z,0.50
2023-05-02T14:54:28.608Z,0.50
2023-05-02T14:56:57.170Z,0.90
2023-05-02T14:59:25.480Z,0.50
2023-05-02T15:01:53.999Z,0.65
2023-05-02T15:04:24.427Z,0.80
2023-05-02T15:06:54.643Z,0.82
2023-05-02T15:09:23.422Z,0.70
2023-05-02T15:11:51.660Z,1.10
2023-05-02T15:14:19.854Z,1.23
2023-05-02T15:16:48.149Z,1.25
2023-05-02T15:19:16.336Z,0.70
2023-05-02T15:21:45.852Z,0.70
2023-05-02T15:24:13.898Z,0.65
2023-05-02T15:26:42.477Z,0.70
2023-05-02T15:29:11.031Z,0.60
2023-05-02T15:31:39.095Z,0.80
2023-05-02T15:34:07.716Z,0.65
2023-05-02T15:36:37.449Z,0.50
2023-05-02T15:39:07.467Z,0.77
2023-05-02T15:41:35.702Z,0.73
2023-05-02T15:44:03.831Z,0.90
2023-05-02T15:46:32.050Z,0.80
2023-05-02T15:49:00.322Z,0.57
2023-05-02T15:51:28.755Z,0.80
2023-05-02T15:53:57.358Z,0.73
2023-05-02T15:56:27.036Z,0.80
2023-05-02T15:58:55.256Z,1.08
2023-05-02T16:01:24.304Z,0.82
2023-05-02T16:03:52.699Z,0.55
2023-05-02T16:06:20.971Z,0.95
2023-05-02T16:08:48.937Z,0.43
2023-05-02T16:11:17.318Z,0.60
2023-05-02T16:13:46.836Z,1.38
2023-05-02T16:16:15.135Z,0.65
2023-05-02T16:18:43.394Z,0.68
2023-05-02T16:21:11.509Z,0.70
2023-05-02T16:23:39.715Z,0.77
2023-05-02T16:26:07.912Z,0.68
2023-05-02T16:28:36.246Z,0.55
2023-05-02T16:31:11.170Z,0.50
2023-05-02T16:33:39.798Z,1.00
2023-05-02T16:36:08.576Z,0.60
2023-05-02T16:38:37.444Z,0.60
2023-05-02T16:41:07.133Z,0.70
2023-05-02T16:43:35.958Z,0.63
2023-05-02T16:46:06.037Z,0.70
2023-05-02T16:48:36.403Z,0.57
2023-05-02T16:51:04.838Z,0.57
2023-05-02T16:53:33.491Z,0.70
2023-05-02T16:56:01.828Z,0.80
2023-05-02T16:58:30.255Z,0.52
2023-05-02T17:01:00.717Z,0.60
2023-05-02T17:03:30.075Z,0.82
2023-05-02T17:06:02.000Z,0.60
2023-05-02T17:08:30.592Z,0.75
2023-05-02T17:10:59.000Z,0.47
2023-05-02T17:13:27.309Z,0.70
2023-05-02T17:15:56.028Z,0.52
2023-05-02T17:18:24.399Z,0.60
2023-05-02T17:20:52.949Z,0.57
2023-05-02T17:23:23.095Z,0.73
2023-05-02T17:25:52.015Z,1.13
2023-05-02T17:28:20.259Z,1.23
2023-05-02T17:30:48.816Z,0.68
2023-05-02T17:33:17.518Z,0.50
2023-05-02T17:35:45.674Z,0.60
2023-05-02T17:38:13.952Z,0.35
2023-05-02T17:40:43.583Z,0.68
2023-05-02T17:43:11.845Z,0.50
2023-05-02T17:45:41.639Z,0.52
2023-05-02T17:48:09.889Z,0.60
2023-05-02T17:50:38.592Z,0.52
2023-05-02T17:53:07.298Z,0.52
2023-05-02T17:55:38.643Z,0.57
2023-05-02T17:58:08.472Z,0.50
2023-05-02T18:00:36.864Z,0.63
2023-05-02T18:03:05.562Z,0.57
2023-05-02T18:05:39.692Z,0.73
2023-05-02T18:08:08.466Z,0.60
2023-05-02T18:10:40.520Z,0.20
2023-05-02T18:13:10.628Z,0.52
2023-05-02T18:15:39.005Z,0.63
2023-05-02T18:18:07.628Z,0.60
2023-05-02T18:20:40.564Z,0.60
2023-05-02T18:23:08.955Z,0.55
2023-05-02T18:25:37.317Z,0.63
2023-05-02T18:28:05.665Z,0.70
2023-05-02T18:30:37.813Z,0.60
2023-05-02T18:33:06.528Z,0.60
2023-05-02T18:35:35.694Z,0.68
2023-05-02T18:38:06.794Z,0.50
2023-05-02T18:40:35.175Z,0.63
2023-05-02T18:43:03.510Z,0.47
2023-05-02T18:45:31.849Z,0.45
2023-05-02T18:48:01.826Z,0.70
2023-05-02T18:50:30.224Z,0.70
2023-05-02T18:52:58.519Z,0.50
2023-05-02T18:55:26.965Z,0.52
2023-05-02T18:57:55.899Z,0.22
2023-05-02T19:00:25.891Z,0.50
2023-05-02T19:02:54.595Z,0.20
2023-05-02T19:05:24.611Z,0.80
2023-05-02T19:07:52.998Z,0.60
2023-05-02T19:10:21.379Z,0.50
2023-05-02T19:12:49.637Z,0.40
2023-05-02T19:15:18.124Z,0.60
2023-05-02T19:17:46.769Z,0.73
2023-05-02T19:20:15.331Z,0.73
2023-05-02T19:22:46.197Z,0.43
2023-05-02T19:25:14.749Z,0.50
2023-05-02T19:27:44.256Z,0.70
2023-05-02T19:30:14.377Z,0.40
2023-05-02T19:32:43.386Z,0.95
2023-05-02T19:35:11.989Z,0.90
2023-05-02T19:37:40.450Z,0.25
2023-05-02T19:40:12.034Z,0.47
2023-05-02T19:42:40.560Z,0.43
2023-05-02T19:45:10.010Z,0.50
2023-05-02T19:47:43.747Z,0.50
2023-05-02T19:50:13.048Z,0.15
2023-05-02T19:52:42.952Z,0.30
2023-05-02T19:55:12.731Z,0.30
2023-05-02T19:57:44.320Z,0.20
2023-05-02T20:00:14.179Z,0.40
2023-05-02T20:02:42.932Z,0.30
2023-05-02T20:05:11.724Z,0.40
2023-05-02T20:07:40.007Z,0.25
2023-05-02T20:10:09.865Z,0.50
2023-05-02T20:12:39.605Z,0.20
2023-05-02T20:15:08.927Z,0.40
2023-05-02T20:17:37.224Z,0.40
2023-05-02T20:20:08.296Z,0.30
2023-05-02T20:22:36.591Z,0.30
2023-05-02T20:25:05.189Z,0.30
2023-05-02T20:27:34.392Z,0.40
2023-05-02T20:30:04.362Z,0.40
2023-05-02T20:32:32.872Z,0.50
2023-05-02T20:35:01.271Z,0.40
2023-05-02T20:37:29.765Z,0.20
2023-05-02T20:39:58.303Z,0.63
2023-05-02T20:42:27.054Z,0.65
2023-05-02T20:44:56.876Z,0.70
2023-05-02T20:47:27.930Z,0.82
2023-05-02T20:49:56.525Z,0.47
2023-05-02T20:52:25.124Z,0.30
2023-05-02T20:54:55.475Z,0.30
2023-05-02T20:57:24.425Z,0.13
2023-05-02T20:59:52.671Z,0.55
2023-05-02T21:02:21.503Z,0.40
2023-05-02T21:04:51.325Z,0.55
2023-05-02T21:07:19.680Z,0.30
2023-05-02T21:09:47.944Z,0.45
2023-05-02T21:12:16.404Z,0.50
2023-05-02T21:14:44.770Z,0.60
2023-05-02T21:17:13.128Z,0.65
2023-05-02T21:19:41.502Z,0.28
2023-05-02T21:22:11.200Z,0.60
2023-05-02T21:24:39.581Z,0.60
2023-05-02T21:27:07.901Z,0.60
2023-05-02T21:29:36.346Z,0.20
2023-05-02T21:32:04.780Z,0.43
2023-05-02T21:34:33.057Z,0.30
2023-05-02T21:37:01.451Z,0.80
2023-05-02T21:39:31.253Z,0.85
2023-05-02T21:41:59.564Z,0.88
2023-05-02T21:44:27.955Z,0.43
2023-05-02T21:46:56.199Z,0.40
2023-05-02T21:49:24.520Z,0.50
2023-05-02T21:51:54.163Z,0.40
2023-05-02T21:54:22.493Z,0.50
2023-05-02T21:56:52.193Z,0.73
2023-05-02T21:59:20.437Z,0.40
2023-05-02T22:01:48.700Z,0.70
2023-05-02T22:04:18.089Z,0.60
2023-05-02T22:06:51.472Z,0.23
2023-05-02T22:09:20.751Z,0.73
2023-05-02T22:11:48.872Z,0.23
2023-05-02T22:14:18.497Z,0.77
2023-05-02T22:16:47.306Z,0.30
2023-05-02T22:19:15.730Z,0.27
2023-05-02T22:21:43.827Z,0.20
2023-05-02T22:24:11.966Z,0.30
2023-05-02T22:26:40.151Z,0.43
2023-05-02T22:29:08.230Z,0.50
2023-05-02T22:31:37.944Z,0.47
2023-05-02T22:34:06.254Z,0.47
2023-05-02T22:36:35.604Z,0.60
2023-05-02T22:39:04.405Z,0.70
2023-05-02T22:41:32.602Z,0.40
2023-05-02T22:44:00.949Z,0.30
2023-05-02T22:46:29.236Z,0.80
2023-05-02T22:48:58.949Z,0.57
2023-05-02T22:51:27.329Z,0.30
2023-05-02T22:53:55.608Z,0.40
2023-05-02T22:56:24.585Z,0.40
2023-05-02T22:58:53.224Z,0.40
2023-05-02T23:01:21.515Z,0.50
2023-05-02T23:03:50.076Z,0.80
2023-05-02T23:06:19.768Z,0.40
2023-05-02T23:08:47.902Z,0.97
2023-05-02T23:11:16.099Z,1.10
2023-05-02T23:13:44.204Z,0.90
2023-05-02T23:16:12.422Z,0.80
2023-05-02T23:18:40.615Z,0.50
2023-05-02T23:21:15.556Z,0.77
2023-05-02T23:23:45.238Z,0.60
2023-05-02T23:26:13.690Z,0.90
2023-05-02T23:28:41.850Z,1.00
2023-05-02T23:31:10.391Z,0.80
2023-05-02T23:33:38.888Z,0.40
2023-05-02T23:36:08.463Z,0.87
2023-05-02T23:38:37.032Z,0.40
2023-05-02T23:41:06.692Z,0.73
2023-05-02T23:43:34.904Z,0.60
2023-05-02T23:46:03.768Z,0.57
2023-05-02T23:48:31.878Z,0.40
2023-05-02T23:50:59.995Z,1.47
2023-05-02T23:53:28.295Z,1.27
2023-05-02T23:55:56.451Z,0.93
2023-05-02T23:58:26.100Z,0.63
